sensor_id;sensor_type;location;lat;lon;timestamp;P1;durP1;ratioP1;P2;durP2;ratioP2
12024;SDS011;6073;53.230;10.444;2023-03-01T00:00:50;6.40;;;4.30;;
12024;SDS011;6073;53.230;10.444;2023-03-01T00:03:15;6.60;;;4.17;;
12024;SDS011;6073;53.230;10.444;2023-03-01T00:05:44;7.13;;;4.23;;
12024;SDS011;6073;53.230;10.444;2023-03-01T00:08:11;6.57;;;4.67;;
12024;SDS011;6073;53.230;10.444;2023-03-01T00:10:36;6.40;;;4.90;;
12024;SDS011;6073;53.230;10.444;2023-03-01T00:13:02;7.17;;;5.57;;
12024;SDS011;6073;53.230;10.444;2023-03-01T00:15:30;6.07;;;4.77;;
12024;SDS011;6073;53.230;10.444;2023-03-01T00:17:56;7.80;;;5.00;;
12024;SDS011;6073;53.230;10.444;2023-03-01T00:20:22;5.37;;;4.00;;
12024;SDS011;6073;53.230;10.444;2023-03-01T00:22:47;6.10;;;4.50;;
12024;SDS011;6073;53.230;10.444;2023-03-01T00:25:13;5.47;;;4.33;;
12024;SDS011;6073;53.230;10.444;2023-03-01T00:27:38;6.33;;;4.60;;
12024;SDS011;6073;53.230;10.444;2023-03-01T00:30:04;5.77;;;4.20;;
12024;SDS011;6073;53.230;10.444;2023-03-01T00:32:30;7.93;;;4.80;;
12024;SDS011;6073;53.230;10.444;2023-03-01T00:34:56;6.77;;;4.77;;
12024;SDS011;6073;53.230;10.444;2023-03-01T00:37:21;7.87;;;4.47;;
12024;SDS011;6073;53.230;10.444;2023-03-01T00:39:48;6.10;;;4.40;;
12024;SDS011;6073;53.230;10.444;2023-03-01T00:42:14;6.37;;;4.97;;
12024;SDS011;6073;53.230;10.444;2023-03-01T00:44:39;6.83;;;4.97;;
12024;SDS011;6073;53.230;10.444;2023-03-01T00:47:05;6.63;;;4.93;;
12024;SDS011;6073;53.230;10.444;2023-03-01T00:49:30;6.37;;;4.70;;
12024;SDS011;6073;53.230;10.444;2023-03-01T00:51:56;7.00;;;5.10;;
12024;SDS011;6073;53.230;10.444;2023-03-01T00:54:22;6.53;;;5.03;;
12024;SDS011;6073;53.230;10.444;2023-03-01T00:56:47;6.87;;;5.13;;
12024;SDS011;6073;53.230;10.444;2023-03-01T00:59:13;6.63;;;4.77;;
12024;SDS011;6073;53.230;10.444;2023-03-01T01:01:38;7.87;;;5.00;;
12024;SDS011;6073;53.230;10.444;2023-03-01T01:04:08;6.03;;;4.63;;
12024;SDS011;6073;53.230;10.444;2023-03-01T01:06:37;7.10;;;5.17;;
12024;SDS011;6073;53.230;10.444;2023-03-01T01:09:07;6.00;;;4.50;;
12024;SDS011;6073;53.230;10.444;2023-03-01T01:11:33;8.73;;;4.43;;
12024;SDS011;6073;53.230;10.444;2023-03-01T01:14:01;5.50;;;4.30;;
12024;SDS011;6073;53.230;10.444;2023-03-01T01:16:28;5.87;;;4.30;;
12024;SDS011;6073;53.230;10.444;2023-03-01T01:18:54;8.37;;;4.37;;
12024;SDS011;6073;53.230;10.444;2023-03-01T01:21:22;5.83;;;4.47;;
12024;SDS011;6073;53.230;10.444;2023-03-01T01:23:48;8.23;;;4.50;;
12024;SDS011;6073;53.230;10.444;2023-03-01T01:26:18;5.80;;;4.53;;
12024;SDS011;6073;53.230;10.444;2023-03-01T01:28:46;7.10;;;4.63;;
12024;SDS011;6073;53.230;10.444;2023-03-01T01:31:12;9.03;;;5.10;;
12024;SDS011;6073;53.230;10.444;2023-03-01T01:33:38;6.53;;;4.90;;
12024;SDS011;6073;53.230;10.444;2023-03-01T01:36:04;5.50;;;4.57;;
12024;SDS011;6073;53.230;10.444;2023-03-01T01:38:30;6.37;;;4.93;;
12024;SDS011;6073;53.230;10.444;2023-03-01T01:40:56;5.97;;;4.90;;
12024;SDS011;6073;53.230;10.444;2023-03-01T01:43:24;8.83;;;5.47;;
12024;SDS011;6073;53.230;10.444;2023-03-01T01:45:50;7.97;;;5.30;;
12024;SDS011;6073;53.230;10.444;2023-03-01T01:48:20;8.97;;;5.90;;
12024;SDS011;6073;53.230;10.444;2023-03-01T01:50:51;8.10;;;5.47;;
12024;SDS011;6073;53.230;10.444;2023-03-01T01:53:23;6.67;;;5.47;;
12024;SDS011;6073;53.230;10.444;2023-03-01T01:55:54;7.07;;;5.53;;
12024;SDS011;6073;53.230;10.444;2023-03-01T01:58:23;6.97;;;5.33;;
12024;SDS011;6073;53.230;10.444;2023-03-01T02:00:52;7.83;;;5.83;;
12024;SDS011;6073;53.230;10.444;2023-03-01T02:03:19;7.43;;;5.30;;
12024;SDS011;6073;53.230;10.444;2023-03-01T02:06:00;7.50;;;5.00;;
12024;SDS011;6073;53.230;10.444;2023-03-01T02:08:29;7.33;;;5.13;;
12024;SDS011;6073;53.230;10.444;2023-03-01T02:10:57;6.93;;;4.60;;
12024;SDS011;6073;53.230;10.444;2023-03-01T02:13:24;7.30;;;4.97;;
12024;SDS011;6073;53.230;10.444;2023-03-01T02:15:51;6.63;;;4.90;;
12024;SDS011;6073;53.230;10.444;2023-03-01T02:18:17;6.23;;;4.47;;
12024;SDS011;6073;53.230;10.444;2023-03-01T02:23:33;5.80;;;4.13;;
12024;SDS011;6073;53.230;10.444;2023-03-01T02:28:32;6.37;;;4.67;;
12024;SDS011;6073;53.230;10.444;2023-03-01T02:31:00;7.23;;;4.10;;
12024;SDS011;6073;53.230;10.444;2023-03-01T02:33:46;6.13;;;4.30;;
12024;SDS011;6073;53.230;10.444;2023-03-01T02:36:17;8.50;;;3.97;;
12024;SDS011;6073;53.230;10.444;2023-03-01T02:38:45;8.53;;;4.87;;
12024;SDS011;6073;53.230;10.444;2023-03-01T02:41:13;7.10;;;4.40;;
12024;SDS011;6073;53.230;10.444;2023-03-01T02:43:41;6.00;;;4.40;;
12024;SDS011;6073;53.230;10.444;2023-03-01T02:46:08;6.40;;;4.57;;
12024;SDS011;6073;53.230;10.444;2023-03-01T02:48:44;7.03;;;4.37;;
12024;SDS011;6073;53.230;10.444;2023-03-01T02:57:08;5.60;;;3.60;;
12024;SDS011;6073;53.230;10.444;2023-03-01T02:59:35;4.73;;;3.70;;
12024;SDS011;6073;53.230;10.444;2023-03-01T03:02:05;5.27;;;3.50;;
12024;SDS011;6073;53.230;10.444;2023-03-01T03:05:15;5.53;;;3.50;;
12024;SDS011;6073;53.230;10.444;2023-03-01T03:07:43;5.07;;;4.17;;
12024;SDS011;6073;53.230;10.444;2023-03-01T03:10:15;8.43;;;4.07;;
12024;SDS011;6073;53.230;10.444;2023-03-01T03:12:49;5.10;;;3.70;;
12024;SDS011;6073;53.230;10.444;2023-03-01T03:15:44;4.63;;;3.40;;
12024;SDS011;6073;53.230;10.444;2023-03-01T03:18:11;5.87;;;4.10;;
12024;SDS011;6073;53.230;10.444;2023-03-01T03:20:39;5.80;;;4.63;;
12024;SDS011;6073;53.230;10.444;2023-03-01T03:23:05;5.73;;;4.10;;
12024;SDS011;6073;53.230;10.444;2023-03-01T03:25:31;5.80;;;4.03;;
12024;SDS011;6073;53.230;10.444;2023-03-01T03:27:57;5.93;;;3.93;;
12024;SDS011;6073;53.230;10.444;2023-03-01T03:30:29;6.80;;;4.03;;
12024;SDS011;6073;53.230;10.444;2023-03-01T03:32:56;5.60;;;4.00;;
12024;SDS011;6073;53.230;10.444;2023-03-01T03:35:24;5.37;;;4.17;;
12024;SDS011;6073;53.230;10.444;2023-03-01T03:37:53;5.50;;;4.10;;
12024;SDS011;6073;53.230;10.444;2023-03-01T03:40:29;4.20;;;3.80;;
12024;SDS011;6073;53.230;10.444;2023-03-01T03:42:59;5.80;;;4.00;;
12024;SDS011;6073;53.230;10.444;2023-03-01T03:45:25;5.70;;;4.07;;
12024;SDS011;6073;53.230;10.444;2023-03-01T03:47:50;6.63;;;4.37;;
12024;SDS011;6073;53.230;10.444;2023-03-01T03:50:16;7.67;;;4.07;;
12024;SDS011;6073;53.230;10.444;2023-03-01T03:52:42;4.87;;;4.00;;
12024;SDS011;6073;53.230;10.444;2023-03-01T03:55:10;5.63;;;3.80;;
12024;SDS011;6073;53.230;10.444;2023-03-01T03:57:37;5.90;;;4.20;;
12024;SDS011;6073;53.230;10.444;2023-03-01T04:00:05;7.13;;;4.50;;
12024;SDS011;6073;53.230;10.444;2023-03-01T04:02:46;6.43;;;4.63;;
12024;SDS011;6073;53.230;10.444;2023-03-01T04:05:13;5.80;;;4.10;;
12024;SDS011;6073;53.230;10.444;2023-03-01T04:07:40;5.50;;;4.10;;
12024;SDS011;6073;53.230;10.444;2023-03-01T04:10:09;5.10;;;4.23;;
12024;SDS011;6073;53.230;10.444;2023-03-01T04:12:36;4.93;;;3.50;;
12024;SDS011;6073;53.230;10.444;2023-03-01T04:15:02;8.00;;;3.70;;
12024;SDS011;6073;53.230;10.444;2023-03-01T04:17:39;6.37;;;4.10;;
12024;SDS011;6073;53.230;10.444;2023-03-01T04:20:06;4.77;;;3.63;;
12024;SDS011;6073;53.230;10.444;2023-03-01T04:22:36;6.73;;;3.40;;
12024;SDS011;6073;53.230;10.444;2023-03-01T04:25:02;5.37;;;3.30;;
12024;SDS011;6073;53.230;10.444;2023-03-01T04:27:29;6.17;;;3.30;;
12024;SDS011;6073;53.230;10.444;2023-03-01T04:29:55;4.90;;;3.00;;
12024;SDS011;6073;53.230;10.444;2023-03-01T04:32:20;4.60;;;3.40;;
12024;SDS011;6073;53.230;10.444;2023-03-01T04:34:46;5.20;;;3.27;;
12024;SDS011;6073;53.230;10.444;2023-03-01T04:37:11;4.77;;;3.87;;
12024;SDS011;6073;53.230;10.444;2023-03-01T04:39:37;5.00;;;3.20;;
12024;SDS011;6073;53.230;10.444;2023-03-01T04:42:10;3.77;;;3.00;;
12024;SDS011;6073;53.230;10.444;2023-03-01T04:44:36;5.70;;;3.43;;
12024;SDS011;6073;53.230;10.444;2023-03-01T04:47:02;4.17;;;3.00;;
12024;SDS011;6073;53.230;10.444;2023-03-01T04:49:27;3.80;;;2.93;;
12024;SDS011;6073;53.230;10.444;2023-03-01T04:51:53;5.57;;;3.57;;
12024;SDS011;6073;53.230;10.444;2023-03-01T04:54:18;4.20;;;3.27;;
12024;SDS011;6073;53.230;10.444;2023-03-01T04:56:44;3.63;;;3.00;;
12024;SDS011;6073;53.230;10.444;2023-03-01T04:59:09;3.93;;;2.90;;
12024;SDS011;6073;53.230;10.444;2023-03-01T05:01:37;3.20;;;2.87;;
12024;SDS011;6073;53.230;10.444;2023-03-01T05:04:03;3.43;;;3.03;;
12024;SDS011;6073;53.230;10.444;2023-03-01T05:06:30;3.90;;;2.97;;
12024;SDS011;6073;53.230;10.444;2023-03-01T05:08:56;3.70;;;3.13;;
12024;SDS011;6073;53.230;10.444;2023-03-01T05:11:22;5.53;;;3.20;;
12024;SDS011;6073;53.230;10.444;2023-03-01T05:13:48;4.17;;;3.17;;
12024;SDS011;6073;53.230;10.444;2023-03-01T05:16:15;5.03;;;3.47;;
12024;SDS011;6073;53.230;10.444;2023-03-01T05:18:41;6.07;;;3.33;;
12024;SDS011;6073;53.230;10.444;2023-03-01T05:21:09;5.87;;;3.80;;
12024;SDS011;6073;53.230;10.444;2023-03-01T05:23:37;4.37;;;3.40;;
12024;SDS011;6073;53.230;10.444;2023-03-01T05:26:04;4.33;;;3.03;;
12024;SDS011;6073;53.230;10.444;2023-03-01T05:28:31;4.73;;;3.17;;
12024;SDS011;6073;53.230;10.444;2023-03-01T05:30:57;3.53;;;3.23;;
12024;SDS011;6073;53.230;10.444;2023-03-01T05:33:22;4.60;;;3.63;;
12024;SDS011;6073;53.230;10.444;2023-03-01T05:35:49;4.67;;;3.20;;
12024;SDS011;6073;53.230;10.444;2023-03-01T05:38:17;5.60;;;3.57;;
12024;SDS011;6073;53.230;10.444;2023-03-01T05:40:44;6.27;;;3.67;;
12024;SDS011;6073;53.230;10.444;2023-03-01T05:43:11;4.93;;;3.40;;
12024;SDS011;6073;53.230;10.444;2023-03-01T05:45:37;4.27;;;3.50;;
12024;SDS011;6073;53.230;10.444;2023-03-01T05:48:04;5.60;;;3.40;;
12024;SDS011;6073;53.230;10.444;2023-03-01T05:50:34;5.10;;;4.37;;
12024;SDS011;6073;53.230;10.444;2023-03-01T05:53:12;5.80;;;3.77;;
12024;SDS011;6073;53.230;10.444;2023-03-01T05:55:40;4.83;;;4.10;;
12024;SDS011;6073;53.230;10.444;2023-03-01T05:58:13;6.37;;;4.00;;
12024;SDS011;6073;53.230;10.444;2023-03-01T06:00:40;4.17;;;3.43;;
12024;SDS011;6073;53.230;10.444;2023-03-01T06:03:09;4.63;;;3.50;;
12024;SDS011;6073;53.230;10.444;2023-03-01T06:05:36;3.40;;;3.03;;
12024;SDS011;6073;53.230;10.444;2023-03-01T06:08:01;3.57;;;2.97;;
12024;SDS011;6073;53.230;10.444;2023-03-01T06:10:27;4.70;;;3.57;;
12024;SDS011;6073;53.230;10.444;2023-03-01T06:12:53;4.00;;;3.30;;
12024;SDS011;6073;53.230;10.444;2023-03-01T06:15:19;6.43;;;3.30;;
12024;SDS011;6073;53.230;10.444;2023-03-01T06:17:45;5.47;;;3.23;;
12024;SDS011;6073;53.230;10.444;2023-03-01T06:20:18;7.20;;;3.57;;
12024;SDS011;6073;53.230;10.444;2023-03-01T06:22:46;4.33;;;3.10;;
12024;SDS011;6073;53.230;10.444;2023-03-01T06:25:13;6.23;;;3.83;;
12024;SDS011;6073;53.230;10.444;2023-03-01T06:27:41;7.07;;;5.80;;
12024;SDS011;6073;53.230;10.444;2023-03-01T06:30:07;6.30;;;5.70;;
12024;SDS011;6073;53.230;10.444;2023-03-01T06:32:35;7.13;;;4.43;;
12024;SDS011;6073;53.230;10.444;2023-03-01T06:35:02;4.50;;;3.50;;
12024;SDS011;6073;53.230;10.444;2023-03-01T06:37:28;3.57;;;2.67;;
12024;SDS011;6073;53.230;10.444;2023-03-01T06:39:54;3.60;;;3.07;;
12024;SDS011;6073;53.230;10.444;2023-03-01T06:42:19;3.73;;;3.33;;
12024;SDS011;6073;53.230;10.444;2023-03-01T06:44:45;5.13;;;3.43;;
12024;SDS011;6073;53.230;10.444;2023-03-01T06:47:10;5.57;;;4.37;;
12024;SDS011;6073;53.230;10.444;2023-03-01T06:49:36;5.43;;;3.57;;
12024;SDS011;6073;53.230;10.444;2023-03-01T06:52:02;9.03;;;5.60;;
12024;SDS011;6073;53.230;10.444;2023-03-01T06:54:27;9.30;;;6.83;;
12024;SDS011;6073;53.230;10.444;2023-03-01T06:56:53;6.67;;;5.53;;
12024;SDS011;6073;53.230;10.444;2023-03-01T06:59:18;6.27;;;4.73;;
12024;SDS011;6073;53.230;10.444;2023-03-01T07:01:44;6.10;;;5.30;;
12024;SDS011;6073;53.230;10.444;2023-03-01T07:04:10;5.23;;;4.20;;
12024;SDS011;6073;53.230;10.444;2023-03-01T07:06:36;5.90;;;3.80;;
12024;SDS011;6073;53.230;10.444;2023-03-01T07:09:02;4.83;;;3.53;;
12024;SDS011;6073;53.230;10.444;2023-03-01T07:11:27;4.63;;;3.03;;
12024;SDS011;6073;53.230;10.444;2023-03-01T07:13:53;4.30;;;2.93;;
12024;SDS011;6073;53.230;10.444;2023-03-01T07:16:19;4.37;;;3.30;;
12024;SDS011;6073;53.230;10.444;2023-03-01T07:18:45;3.87;;;3.10;;
12024;SDS011;6073;53.230;10.444;2023-03-01T07:21:11;4.53;;;2.90;;
12024;SDS011;6073;53.230;10.444;2023-03-01T07:23:38;3.35;;;2.65;;
12024;SDS011;6073;53.230;10.444;2023-03-01T07:26:04;13.80;;;8.55;;
12024;SDS011;6073;53.230;10.444;2023-03-01T07:28:29;13.57;;;8.57;;
12024;SDS011;6073;53.230;10.444;2023-03-01T07:31:00;9.40;;;6.07;;
12024;SDS011;6073;53.230;10.444;2023-03-01T07:33:26;4.25;;;3.53;;
12024;SDS011;6073;53.230;10.444;2023-03-01T07:35:58;5.00;;;3.20;;
12024;SDS011;6073;53.230;10.444;2023-03-01T07:38:25;3.90;;;2.83;;
12024;SDS011;6073;53.230;10.444;2023-03-01T07:40:51;4.80;;;3.13;;
12024;SDS011;6073;53.230;10.444;2023-03-01T07:43:17;6.82;;;4.40;;
12024;SDS011;6073;53.230;10.444;2023-03-01T07:45:42;5.90;;;4.00;;
12024;SDS011;6073;53.230;10.444;2023-03-01T07:48:08;5.72;;;3.50;;
12024;SDS011;6073;53.230;10.444;2023-03-01T07:50:33;4.63;;;3.20;;
12024;SDS011;6073;53.230;10.444;2023-03-01T07:52:59;3.85;;;2.75;;
12024;SDS011;6073;53.230;10.444;2023-03-01T07:55:24;3.10;;;2.55;;
12024;SDS011;6073;53.230;10.444;2023-03-01T07:57:50;2.42;;;2.15;;
12024;SDS011;6073;53.230;10.444;2023-03-01T08:00:15;4.20;;;3.25;;
12024;SDS011;6073;53.230;10.444;2023-03-01T08:02:41;4.90;;;2.75;;
12024;SDS011;6073;53.230;10.444;2023-03-01T08:05:07;3.88;;;2.95;;
12024;SDS011;6073;53.230;10.444;2023-03-01T08:07:34;3.72;;;2.75;;
12024;SDS011;6073;53.230;10.444;2023-03-01T08:09:59;3.95;;;2.63;;
12024;SDS011;6073;53.230;10.444;2023-03-01T08:12:25;4.80;;;2.95;;
12024;SDS011;6073;53.230;10.444;2023-03-01T08:14:52;2.72;;;2.45;;
12024;SDS011;6073;53.230;10.444;2023-03-01T08:17:18;4.47;;;3.22;;
12024;SDS011;6073;53.230;10.444;2023-03-01T08:19:44;3.50;;;2.35;;
12024;SDS011;6073;53.230;10.444;2023-03-01T08:22:10;4.10;;;2.65;;
12024;SDS011;6073;53.230;10.444;2023-03-01T08:24:35;3.83;;;2.67;;
12024;SDS011;6073;53.230;10.444;2023-03-01T08:27:01;5.47;;;2.95;;
12024;SDS011;6073;53.230;10.444;2023-03-01T08:29:27;3.75;;;3.20;;
12024;SDS011;6073;53.230;10.444;2023-03-01T08:31:55;4.78;;;2.80;;
12024;SDS011;6073;53.230;10.444;2023-03-01T08:34:21;3.95;;;2.88;;
12024;SDS011;6073;53.230;10.444;2023-03-01T08:36:47;4.82;;;2.47;;
12024;SDS011;6073;53.230;10.444;2023-03-01T08:39:13;2.92;;;2.38;;
12024;SDS011;6073;53.230;10.444;2023-03-01T08:41:40;3.25;;;2.30;;
12024;SDS011;6073;53.230;10.444;2023-03-01T08:44:06;3.63;;;2.50;;
12024;SDS011;6073;53.230;10.444;2023-03-01T08:46:39;3.22;;;2.67;;
12024;SDS011;6073;53.230;10.444;2023-03-01T08:49:06;2.95;;;2.45;;
12024;SDS011;6073;53.230;10.444;2023-03-01T08:51:34;3.20;;;2.45;;
12024;SDS011;6073;53.230;10.444;2023-03-01T08:54:20;3.10;;;2.58;;
12024;SDS011;6073;53.230;10.444;2023-03-01T08:56:47;4.72;;;3.17;;
12024;SDS011;6073;53.230;10.444;2023-03-01T08:59:14;3.47;;;2.30;;
12024;SDS011;6073;53.230;10.444;2023-03-01T09:01:40;3.22;;;2.30;;
12024;SDS011;6073;53.230;10.444;2023-03-01T09:04:10;4.72;;;2.33;;
12024;SDS011;6073;53.230;10.444;2023-03-01T09:06:36;4.38;;;2.70;;
12024;SDS011;6073;53.230;10.444;2023-03-01T09:09:02;4.32;;;2.30;;
12024;SDS011;6073;53.230;10.444;2023-03-01T09:11:29;4.07;;;2.50;;
12024;SDS011;6073;53.230;10.444;2023-03-01T09:13:55;5.03;;;3.00;;
12024;SDS011;6073;53.230;10.444;2023-03-01T09:16:21;4.35;;;2.67;;
12024;SDS011;6073;53.230;10.444;2023-03-01T09:18:51;4.00;;;2.78;;
12024;SDS011;6073;53.230;10.444;2023-03-01T09:21:18;2.78;;;2.45;;
12024;SDS011;6073;53.230;10.444;2023-03-01T09:23:46;3.78;;;3.00;;
12024;SDS011;6073;53.230;10.444;2023-03-01T09:26:16;4.28;;;3.67;;
12024;SDS011;6073;53.230;10.444;2023-03-01T09:28:44;3.78;;;3.42;;
12024;SDS011;6073;53.230;10.444;2023-03-01T09:31:11;6.50;;;4.45;;
12024;SDS011;6073;53.230;10.444;2023-03-01T09:33:38;5.57;;;4.35;;
12024;SDS011;6073;53.230;10.444;2023-03-01T09:36:05;7.50;;;5.60;;
12024;SDS011;6073;53.230;10.444;2023-03-01T09:38:32;5.38;;;4.38;;
12024;SDS011;6073;53.230;10.444;2023-03-01T09:40:59;4.93;;;4.30;;
12024;SDS011;6073;53.230;10.444;2023-03-01T09:43:45;6.30;;;5.18;;
12024;SDS011;6073;53.230;10.444;2023-03-01T09:46:21;8.00;;;5.20;;
12024;SDS011;6073;53.230;10.444;2023-03-01T09:48:50;9.95;;;5.97;;
12024;SDS011;6073;53.230;10.444;2023-03-01T09:51:30;8.43;;;5.78;;
12024;SDS011;6073;53.230;10.444;2023-03-01T09:53:58;9.23;;;6.30;;
12024;SDS011;6073;53.230;10.444;2023-03-01T09:56:33;10.48;;;7.10;;
12024;SDS011;6073;53.230;10.444;2023-03-01T09:59:29;10.82;;;6.78;;
12024;SDS011;6073;53.230;10.444;2023-03-01T10:04:34;8.60;;;6.28;;
12024;SDS011;6073;53.230;10.444;2023-03-01T10:09:48;9.18;;;6.47;;
12024;SDS011;6073;53.230;10.444;2023-03-01T10:12:15;8.63;;;6.22;;
12024;SDS011;6073;53.230;10.444;2023-03-01T10:20:20;10.00;;;6.05;;
12024;SDS011;6073;53.230;10.444;2023-03-01T10:22:50;9.48;;;5.85;;
12024;SDS011;6073;53.230;10.444;2023-03-01T10:27:55;9.73;;;7.15;;
12024;SDS011;6073;53.230;10.444;2023-03-01T10:33:03;7.78;;;5.93;;
12024;SDS011;6073;53.230;10.444;2023-03-01T10:36:00;9.50;;;6.13;;
12024;SDS011;6073;53.230;10.444;2023-03-01T10:38:26;11.85;;;6.75;;
12024;SDS011;6073;53.230;10.444;2023-03-01T10:40:57;9.82;;;6.45;;
12024;SDS011;6073;53.230;10.444;2023-03-01T10:43:27;8.95;;;6.30;;
12024;SDS011;6073;53.230;10.444;2023-03-01T10:46:14;10.73;;;6.68;;
12024;SDS011;6073;53.230;10.444;2023-03-01T10:48:59;9.13;;;5.75;;
12024;SDS011;6073;53.230;10.444;2023-03-01T10:51:41;7.43;;;6.18;;
12024;SDS011;6073;53.230;10.444;2023-03-01T10:54:27;8.70;;;5.93;;
12024;SDS011;6073;53.230;10.444;2023-03-01T10:57:05;7.97;;;6.15;;
12024;SDS011;6073;53.230;10.444;2023-03-01T10:59:32;9.77;;;6.80;;
12024;SDS011;6073;53.230;10.444;2023-03-01T11:07:47;8.82;;;6.40;;
12024;SDS011;6073;53.230;10.444;2023-03-01T11:10:25;8.32;;;6.60;;
12024;SDS011;6073;53.230;10.444;2023-03-01T11:12:51;7.95;;;6.00;;
12024;SDS011;6073;53.230;10.444;2023-03-01T11:15:22;10.15;;;7.07;;
12024;SDS011;6073;53.230;10.444;2023-03-01T11:17:50;12.27;;;6.93;;
12024;SDS011;6073;53.230;10.444;2023-03-01T11:23:01;11.23;;;7.63;;
12024;SDS011;6073;53.230;10.444;2023-03-01T11:25:33;9.95;;;7.78;;
12024;SDS011;6073;53.230;10.444;2023-03-01T11:28:03;10.60;;;7.78;;
12024;SDS011;6073;53.230;10.444;2023-03-01T11:30:32;9.75;;;7.20;;
12024;SDS011;6073;53.230;10.444;2023-03-01T11:33:16;7.63;;;6.82;;
12024;SDS011;6073;53.230;10.444;2023-03-01T11:35:46;10.93;;;7.57;;
12024;SDS011;6073;53.230;10.444;2023-03-01T11:38:22;10.32;;;7.88;;
12024;SDS011;6073;53.230;10.444;2023-03-01T11:40:51;10.43;;;8.20;;
12024;SDS011;6073;53.230;10.444;2023-03-01T11:43:37;11.57;;;8.05;;
12024;SDS011;6073;53.230;10.444;2023-03-01T11:59:26;11.32;;;8.02;;
12024;SDS011;6073;53.230;10.444;2023-03-01T12:10:18;9.65;;;7.40;;
12024;SDS011;6073;53.230;10.444;2023-03-01T12:20:54;8.55;;;7.10;;
12024;SDS011;6073;53.230;10.444;2023-03-01T12:28:34;9.18;;;7.00;;
12024;SDS011;6073;53.230;10.444;2023-03-01T12:33:45;11.32;;;7.78;;
12024;SDS011;6073;53.230;10.444;2023-03-01T12:39:24;11.48;;;8.35;;
12024;SDS011;6073;53.230;10.444;2023-03-01T12:42:24;11.70;;;8.05;;
12024;SDS011;6073;53.230;10.444;2023-03-01T12:45:24;11.10;;;8.48;;
12024;SDS011;6073;53.230;10.444;2023-03-01T12:51:01;9.82;;;8.13;;
12024;SDS011;6073;53.230;10.444;2023-03-01T12:53:32;10.57;;;7.80;;
12024;SDS011;6073;53.230;10.444;2023-03-01T12:56:02;11.02;;;8.20;;
12024;SDS011;6073;53.230;10.444;2023-03-01T13:01:21;12.35;;;8.27;;
12024;SDS011;6073;53.230;10.444;2023-03-01T13:07:25;10.50;;;8.20;;
12024;SDS011;6073;53.230;10.444;2023-03-01T13:10:26;9.73;;;7.78;;
12024;SDS011;6073;53.230;10.444;2023-03-01T13:13:12;10.13;;;7.78;;
12024;SDS011;6073;53.230;10.444;2023-03-01T13:15:43;9.85;;;7.93;;
12024;SDS011;6073;53.230;10.444;2023-03-01T13:26:06;11.68;;;8.52;;
12024;SDS011;6073;53.230;10.444;2023-03-01T13:33:54;9.93;;;7.50;;
12024;SDS011;6073;53.230;10.444;2023-03-01T13:41:52;8.60;;;7.15;;
12024;SDS011;6073;53.230;10.444;2023-03-01T13:44:35;9.27;;;7.53;;
12024;SDS011;6073;53.230;10.444;2023-03-01T13:49:41;9.30;;;7.18;;
12024;SDS011;6073;53.230;10.444;2023-03-01T13:52:53;11.02;;;7.82;;
12024;SDS011;6073;53.230;10.444;2023-03-01T13:55:03;11.07;;;8.07;;
12024;SDS011;6073;53.230;10.444;2023-03-01T13:57:35;11.23;;;8.07;;
12024;SDS011;6073;53.230;10.444;2023-03-01T14:00:04;8.63;;;7.35;;
12024;SDS011;6073;53.230;10.444;2023-03-01T14:02:30;10.27;;;7.90;;
12024;SDS011;6073;53.230;10.444;2023-03-01T14:04:57;9.88;;;8.05;;
12024;SDS011;6073;53.230;10.444;2023-03-01T14:07:23;10.15;;;8.10;;
12024;SDS011;6073;53.230;10.444;2023-03-01T14:09:54;11.20;;;7.95;;
12024;SDS011;6073;53.230;10.444;2023-03-01T14:12:25;9.82;;;7.55;;
12024;SDS011;6073;53.230;10.444;2023-03-01T14:15:15;10.50;;;8.38;;
12024;SDS011;6073;53.230;10.444;2023-03-01T14:18:18;10.68;;;8.15;;
12024;SDS011;6073;53.230;10.444;2023-03-01T14:20:50;11.50;;;8.27;;
12024;SDS011;6073;53.230;10.444;2023-03-01T14:23:20;10.73;;;7.40;;
12024;SDS011;6073;53.230;10.444;2023-03-01T14:25:47;8.45;;;7.00;;
12024;SDS011;6073;53.230;10.444;2023-03-01T14:28:23;9.77;;;7.22;;
12024;SDS011;6073;53.230;10.444;2023-03-01T14:30:52;10.20;;;7.93;;
12024;SDS011;6073;53.230;10.444;2023-03-01T14:35:58;8.80;;;6.72;;
12024;SDS011;6073;53.230;10.444;2023-03-01T14:38:32;10.48;;;8.25;;
12024;SDS011;6073;53.230;10.444;2023-03-01T14:41:02;9.27;;;7.55;;
12024;SDS011;6073;53.230;10.444;2023-03-01T14:43:41;10.35;;;7.40;;
12024;SDS011;6073;53.230;10.444;2023-03-01T14:51:38;11.82;;;7.40;;
12024;SDS011;6073;53.230;10.444;2023-03-01T14:54:10;10.02;;;7.68;;
12024;SDS011;6073;53.230;10.444;2023-03-01T14:56:57;9.75;;;7.65;;
12024;SDS011;6073;53.230;10.444;2023-03-01T14:59:26;10.93;;;7.50;;
12024;SDS011;6073;53.230;10.444;2023-03-01T15:01:53;9.98;;;7.70;;
12024;SDS011;6073;53.230;10.444;2023-03-01T15:04:21;9.20;;;7.07;;
12024;SDS011;6073;53.230;10.444;2023-03-01T15:06:52;10.45;;;6.95;;
12024;SDS011;6073;53.230;10.444;2023-03-01T15:09:19;8.90;;;6.95;;
12024;SDS011;6073;53.230;10.444;2023-03-01T15:11:46;9.70;;;7.43;;
12024;SDS011;6073;53.230;10.444;2023-03-01T15:14:26;11.35;;;7.78;;
12024;SDS011;6073;53.230;10.444;2023-03-01T15:16:52;10.93;;;8.43;;
12024;SDS011;6073;53.230;10.444;2023-03-01T15:19:17;8.65;;;7.53;;
12024;SDS011;6073;53.230;10.444;2023-03-01T15:21:44;13.20;;;8.43;;
12024;SDS011;6073;53.230;10.444;2023-03-01T15:27:20;9.30;;;7.28;;
12024;SDS011;6073;53.230;10.444;2023-03-01T15:29:47;9.80;;;6.97;;
12024;SDS011;6073;53.230;10.444;2023-03-01T15:32:31;10.32;;;6.90;;
12024;SDS011;6073;53.230;10.444;2023-03-01T15:34:59;10.43;;;7.50;;
12024;SDS011;6073;53.230;10.444;2023-03-01T15:37:36;8.73;;;6.68;;
12024;SDS011;6073;53.230;10.444;2023-03-01T15:40:17;11.52;;;7.13;;
12024;SDS011;6073;53.230;10.444;2023-03-01T15:42:59;8.38;;;6.70;;
12024;SDS011;6073;53.230;10.444;2023-03-01T15:45:27;9.02;;;7.15;;
12024;SDS011;6073;53.230;10.444;2023-03-01T15:47:58;10.93;;;7.25;;
12024;SDS011;6073;53.230;10.444;2023-03-01T15:50:35;8.07;;;7.00;;
12024;SDS011;6073;53.230;10.444;2023-03-01T15:53:05;10.25;;;7.32;;
12024;SDS011;6073;53.230;10.444;2023-03-01T15:55:36;9.80;;;7.63;;
12024;SDS011;6073;53.230;10.444;2023-03-01T16:00:34;9.40;;;7.65;;
12024;SDS011;6073;53.230;10.444;2023-03-01T16:03:00;9.50;;;6.65;;
12024;SDS011;6073;53.230;10.444;2023-03-01T16:05:30;9.90;;;7.60;;
12024;SDS011;6073;53.230;10.444;2023-03-01T16:07:58;8.90;;;7.15;;
12024;SDS011;6073;53.230;10.444;2023-03-01T16:10:24;9.27;;;6.93;;
12024;SDS011;6073;53.230;10.444;2023-03-01T16:12:50;9.05;;;6.70;;
12024;SDS011;6073;53.230;10.444;2023-03-01T16:15:30;10.85;;;7.28;;
12024;SDS011;6073;53.230;10.444;2023-03-01T16:17:59;10.07;;;7.45;;
12024;SDS011;6073;53.230;10.444;2023-03-01T16:20:24;9.90;;;7.32;;
12024;SDS011;6073;53.230;10.444;2023-03-01T16:22:51;9.20;;;7.03;;
12024;SDS011;6073;53.230;10.444;2023-03-01T16:25:17;9.38;;;7.63;;
12024;SDS011;6073;53.230;10.444;2023-03-01T16:27:45;8.40;;;7.22;;
12024;SDS011;6073;53.230;10.444;2023-03-01T16:30:13;8.68;;;6.75;;
12024;SDS011;6073;53.230;10.444;2023-03-01T16:32:40;8.95;;;6.55;;
12024;SDS011;6073;53.230;10.444;2023-03-01T16:35:08;10.98;;;6.00;;
12024;SDS011;6073;53.230;10.444;2023-03-01T16:37:35;7.95;;;6.63;;
12024;SDS011;6073;53.230;10.444;2023-03-01T16:40:03;7.72;;;6.38;;
12024;SDS011;6073;53.230;10.444;2023-03-01T16:42:33;7.68;;;6.43;;
12024;SDS011;6073;53.230;10.444;2023-03-01T16:45:00;8.65;;;6.18;;
12024;SDS011;6073;53.230;10.444;2023-03-01T16:47:26;8.15;;;6.70;;
12024;SDS011;6073;53.230;10.444;2023-03-01T16:49:52;7.85;;;5.93;;
12024;SDS011;6073;53.230;10.444;2023-03-01T16:52:19;9.05;;;7.03;;
12024;SDS011;6073;53.230;10.444;2023-03-01T16:54:45;7.90;;;6.45;;
12024;SDS011;6073;53.230;10.444;2023-03-01T16:57:10;8.57;;;7.20;;
12024;SDS011;6073;53.230;10.444;2023-03-01T16:59:36;9.63;;;7.28;;